createdAt,value
2023-02-11T00:03:16.239Z,95.08
2023-02-11T00:08:18.786Z,95.02
2023-02-11T00:13:23.232Z,95.56
2023-02-11T00:18:25.928Z,96.68
2023-02-11T00:23:28.415Z,96.67
2023-02-11T00:28:32.387Z,96.91
2023-02-11T00:33:34.943Z,97.34
2023-02-11T00:38:37.453Z,97.13
2023-02-11T00:43:42.079Z,97.32
2023-02-11T00:48:44.714Z,97.74
2023-02-11T00:53:47.228Z,98.08
2023-02-11T00:58:51.240Z,98.27
2023-02-11T01:03:53.755Z,98.49
2023-02-11T01:08:56.320Z,99.20
2023-02-11T01:14:00.166Z,100.00
2023-02-11T01:19:02.669Z,100.00
2023-02-11T01:24:05.289Z,100.00
2023-02-11T01:29:09.466Z,100.00
2023-02-11T01:34:11.983Z,100.00
2023-02-11T01:39:14.498Z,100.00
2023-02-11T01:44:25.534Z,100.00
2023-02-11T01:49:30.376Z,100.00
2023-02-11T01:54:53.762Z,100.00
2023-02-11T02:00:06.142Z,100.00
2023-02-11T02:05:17.571Z,100.00
2023-02-11T02:10:23.674Z,100.00
2023-02-11T02:15:30.300Z,100.00
2023-02-11T02:21:08.859Z,100.00
2023-02-11T02:26:45.561Z,100.00
2023-02-11T02:32:16.368Z,100.00
2023-02-11T02:37:25.479Z,100.00
2023-02-11T02:42:28.069Z,100.00
2023-02-11T02:47:31.982Z,100.00
2023-02-11T02:52:37.675Z,100.00
2023-02-11T02:57:54.434Z,100.00
2023-02-11T03:03:16.484Z,100.00
2023-02-11T03:08:27.297Z,100.00
2023-02-11T03:13:33.872Z,100.00
2023-02-11T03:18:42.320Z,100.00
2023-02-11T03:23:50.733Z,100.00
2023-02-11T03:28:59.355Z,100.00
2023-02-11T03:34:09.638Z,100.00
2023-02-11T03:39:13.915Z,100.00
2023-02-11T03:44:18.008Z,100.00
2023-02-11T03:49:24.269Z,100.00
2023-02-11T03:54:30.963Z,100.00
2023-02-11T03:59:33.447Z,100.00
2023-02-11T04:04:37.638Z,100.00
2023-02-11T04:09:40.180Z,100.00
2023-02-11T04:14:42.662Z,100.00
2023-02-11T04:19:46.500Z,100.00
2023-02-11T04:24:49.054Z,100.00
2023-02-11T04:29:51.550Z,100.00
2023-02-11T04:34:55.744Z,100.00
2023-02-11T04:39:58.230Z,100.00
2023-02-11T04:45:00.729Z,100.00
2023-02-11T04:50:05.088Z,100.00
2023-02-11T04:55:08.030Z,100.00
2023-02-11T05:00:11.658Z,100.00
2023-02-11T05:05:15.525Z,100.00
2023-02-11T05:10:18.188Z,100.00
2023-02-11T05:15:20.668Z,100.00
2023-02-11T05:20:24.599Z,100.00
2023-02-11T05:25:27.082Z,100.00
2023-02-11T05:30:29.718Z,100.00
2023-02-11T05:35:33.636Z,100.00
2023-02-11T05:40:36.091Z,100.00
2023-02-11T05:45:38.669Z,100.00
2023-02-11T05:50:42.832Z,100.00
2023-02-11T05:55:45.314Z,100.00
2023-02-11T06:00:47.844Z,100.00
2023-02-11T06:05:51.906Z,100.00
2023-02-11T06:10:54.566Z,100.00
2023-02-11T06:15:58.179Z,100.00
2023-02-11T06:21:02.330Z,100.00
2023-02-11T06:26:06.509Z,100.00
2023-02-11T06:31:09.760Z,100.00
2023-02-11T06:36:18.195Z,100.00
2023-02-11T06:41:21.451Z,100.00
2023-02-11T06:46:24.063Z,100.00
2023-02-11T06:51:28.318Z,100.00
2023-02-11T06:56:30.814Z,100.00
2023-02-11T07:01:33.345Z,100.00
2023-02-11T07:06:37.940Z,100.00
2023-02-11T07:11:40.443Z,100.00
2023-02-11T07:16:42.965Z,100.00
2023-02-11T07:21:48.515Z,100.00
2023-02-11T07:26:51.000Z,100.00
2023-02-11T07:31:53.529Z,100.00
2023-02-11T07:36:57.354Z,100.00
2023-02-11T07:42:00.024Z,100.00
2023-02-11T07:47:02.595Z,100.00
2023-02-11T07:52:06.551Z,100.00
2023-02-11T07:57:09.022Z,100.00
2023-02-11T08:02:11.532Z,100.00
2023-02-11T08:07:17.712Z,100.00
2023-02-11T08:12:20.186Z,100.00
2023-02-11T08:17:22.780Z,100.00
2023-02-11T08:22:26.638Z,100.00
2023-02-11T08:27:29.250Z,100.00
2023-02-11T08:32:31.753Z,100.00
2023-02-11T08:37:35.600Z,100.00
2023-02-11T08:42:38.077Z,100.00
2023-02-11T08:47:41.181Z,100.00
2023-02-11T08:52:45.059Z,100.00
2023-02-11T08:57:47.530Z,100.00
2023-02-11T09:02:50.011Z,100.00
2023-02-11T09:07:53.873Z,100.00
2023-02-11T09:12:56.389Z,100.00
2023-02-11T09:17:59.051Z,100.00
2023-02-11T09:23:02.914Z,100.00
2023-02-11T09:28:05.666Z,100.00
2023-02-11T09:33:08.221Z,100.00
2023-02-11T09:38:12.058Z,100.00
2023-02-11T09:43:20.971Z,100.00
2023-02-11T09:48:24.424Z,100.00
2023-02-11T09:53:30.506Z,100.00
2023-02-11T09:58:36.324Z,100.00
2023-02-11T10:03:58.513Z,100.00
2023-02-11T10:09:14.587Z,100.00
2023-02-11T10:14:32.534Z,100.00
2023-02-11T10:19:46.808Z,100.00
2023-02-11T10:24:54.791Z,100.00
2023-02-11T10:30:03.055Z,100.00
2023-02-11T10:35:15.138Z,100.00
2023-02-11T10:40:22.203Z,100.00
2023-02-11T10:45:29.998Z,100.00
2023-02-11T10:50:34.905Z,100.00
2023-02-11T10:55:38.981Z,100.00
2023-02-11T11:00:43.275Z,100.00
2023-02-11T11:05:50.964Z,100.00
2023-02-11T11:11:06.493Z,100.00
2023-02-11T11:16:22.132Z,100.00
2023-02-11T11:21:27.377Z,100.00
2023-02-11T11:26:42.564Z,100.00
2023-02-11T11:31:52.903Z,100.00
2023-02-11T11:36:57.121Z,100.00
2023-02-11T11:42:03.198Z,100.00
2023-02-11T11:47:21.032Z,100.00
2023-02-11T11:52:36.629Z,100.00
2023-02-11T11:57:40.925Z,100.00
2023-02-11T12:03:18.557Z,100.00
2023-02-11T12:08:34.619Z,100.00
2023-02-11T12:13:49.947Z,100.00
2023-02-11T12:19:20.014Z,100.00
2023-02-11T12:24:37.889Z,100.00
2023-02-11T12:29:56.501Z,100.00
2023-02-11T12:35:26.469Z,100.00
2023-02-11T12:40:38.410Z,100.00
2023-02-11T12:45:54.915Z,100.00
2023-02-11T12:51:02.560Z,100.00
2023-02-11T12:56:12.631Z,100.00
2023-02-11T13:01:23.202Z,100.00
2023-02-11T13:06:30.378Z,100.00
2023-02-11T13:11:38.472Z,100.00
2023-02-11T13:16:44.751Z,100.00
2023-02-11T13:21:56.852Z,100.00
2023-02-11T13:27:05.086Z,100.00
2023-02-11T13:32:11.082Z,100.00
2023-02-11T13:37:22.180Z,100.00
2023-02-11T13:42:25.250Z,100.00
2023-02-11T13:47:32.863Z,100.00
2023-02-11T13:52:38.181Z,100.00
2023-02-11T13:57:41.315Z,100.00
2023-02-11T14:03:02.501Z,100.00
2023-02-11T14:08:31.974Z,100.00
2023-02-11T14:13:36.246Z,100.00
2023-02-11T14:18:59.804Z,100.00
2023-02-11T14:24:39.680Z,100.00
2023-02-11T14:29:50.973Z,100.00
2023-02-11T14:35:04.282Z,100.00
2023-02-11T14:40:19.946Z,100.00
2023-02-11T14:45:27.314Z,100.00
2023-02-11T14:50:35.482Z,100.00
2023-02-11T14:55:42.655Z,100.00
2023-02-11T15:00:56.566Z,100.00
2023-02-11T15:06:02.895Z,99.95
2023-02-11T15:11:11.402Z,99.95
2023-02-11T15:16:18.408Z,100.00
2023-02-11T15:21:24.675Z,100.00
2023-02-11T15:26:27.493Z,100.00
2023-02-11T15:31:32.400Z,100.00
2023-02-11T15:36:38.795Z,100.00
2023-02-11T15:41:41.291Z,100.00
2023-02-11T15:46:47.341Z,100.00
2023-02-11T15:51:53.580Z,100.00
2023-02-11T15:57:02.664Z,100.00
2023-02-11T16:02:10.947Z,100.00
2023-02-11T16:07:41.741Z,100.00
2023-02-11T16:12:52.518Z,100.00
2023-02-11T16:17:55.090Z,100.00
2023-02-11T16:22:59.088Z,100.00
2023-02-11T16:28:02.152Z,100.00
2023-02-11T16:33:05.686Z,100.00
2023-02-11T16:38:09.591Z,100.00
2023-02-11T16:43:12.092Z,100.00
2023-02-11T16:48:19.449Z,100.00
2023-02-11T16:53:25.622Z,100.00
2023-02-11T16:58:28.096Z,100.00
2023-02-11T17:03:35.529Z,100.00
2023-02-11T17:08:39.463Z,100.00
2023-02-11T17:13:42.177Z,100.00
2023-02-11T17:18:44.710Z,100.00
2023-02-11T17:23:48.513Z,100.00
2023-02-11T17:28:51.223Z,100.00
2023-02-11T17:33:53.724Z,99.83
2023-02-11T17:38:58.800Z,99.96
2023-02-11T17:44:02.258Z,100.00
2023-02-11T17:49:04.917Z,100.00
2023-02-11T17:54:11.380Z,100.00
2023-02-11T17:59:14.726Z,100.00
2023-02-11T18:04:19.020Z,100.00
2023-02-11T18:09:22.899Z,100.00
2023-02-11T18:14:25.460Z,100.00
2023-02-11T18:19:30.479Z,100.00
2023-02-11T18:24:34.348Z,100.00
2023-02-11T18:29:36.872Z,100.00
2023-02-11T18:34:40.748Z,100.00
2023-02-11T18:39:44.635Z,100.00
2023-02-11T18:44:47.199Z,100.00
2023-02-11T18:49:49.723Z,100.00
2023-02-11T18:54:53.566Z,100.00
2023-02-11T18:59:56.046Z,100.00
2023-02-11T19:04:58.510Z,100.00
2023-02-11T19:10:02.327Z,100.00
2023-02-11T19:15:05.476Z,100.00
2023-02-11T19:20:09.427Z,100.00
2023-02-11T19:25:13.666Z,100.00
2023-02-11T19:30:16.239Z,100.00
2023-02-11T19:35:19.021Z,100.00
2023-02-11T19:40:22.957Z,100.00
2023-02-11T19:45:26.339Z,100.00
2023-02-11T19:50:28.856Z,100.00
2023-02-11T19:55:35.453Z,100.00
2023-02-11T20:00:37.958Z,100.00
2023-02-11T20:05:43.381Z,100.00
2023-02-11T20:10:47.417Z,100.00
2023-02-11T20:15:50.200Z,100.00
2023-02-11T20:20:53.110Z,100.00
2023-02-11T20:25:57.019Z,100.00
2023-02-11T20:31:00.271Z,100.00
2023-02-11T20:36:05.128Z,100.00
2023-02-11T20:41:13.838Z,100.00
2023-02-11T20:46:18.827Z,100.00
2023-02-11T20:51:23.877Z,100.00
2023-02-11T20:56:29.910Z,100.00
2023-02-11T21:01:34.954Z,100.00
2023-02-11T21:06:39.947Z,100.00
2023-02-11T21:11:44.173Z,100.00
2023-02-11T21:16:47.489Z,100.00
2023-02-11T21:21:50.103Z,100.00
2023-02-11T21:26:53.930Z,100.00
2023-02-11T21:31:56.555Z,100.00
2023-02-11T21:36:59.228Z,100.00
2023-02-11T21:42:03.049Z,100.00
2023-02-11T21:47:05.700Z,100.00
2023-02-11T21:52:08.219Z,100.00
2023-02-11T21:57:12.054Z,100.00
2023-02-11T22:02:14.576Z,100.00
2023-02-11T22:07:17.104Z,100.00
2023-02-11T22:12:20.996Z,100.00
2023-02-11T22:17:24.182Z,100.00
2023-02-11T22:22:26.784Z,100.00
2023-02-11T22:27:30.716Z,100.00
2023-02-11T22:32:33.229Z,100.00
2023-02-11T22:37:35.834Z,100.00
2023-02-11T22:42:39.658Z,100.00
2023-02-11T22:47:42.254Z,100.00
2023-02-11T22:52:44.901Z,100.00
2023-02-11T22:57:48.729Z,100.00
2023-02-11T23:02:51.673Z,100.00
2023-02-11T23:07:54.170Z,100.00
2023-02-11T23:12:58.020Z,100.00
2023-02-11T23:18:00.680Z,100.00
2023-02-11T23:23:03.397Z,100.00
2023-02-11T23:28:07.354Z,100.00
2023-02-11T23:33:09.895Z,100.00
2023-02-11T23:38:12.469Z,100.00
2023-02-11T23:43:16.446Z,100.00
2023-02-11T23:48:19.117Z,100.00
2023-02-11T23:53:21.663Z,100.00
2023-02-11T23:58:25.560Z,100.00
